sensor_id;sensor_type;location;lat;lon;timestamp;P1;durP1;ratioP1;P2;durP2;ratioP2
4597;SDS011;62772;48.646;8.906;2023-05-07T00:02:41;7.23;;;3.73;;
4597;SDS011;62772;48.646;8.906;2023-05-07T00:07:42;6.53;;;3.87;;
4597;SDS011;62772;48.646;8.906;2023-05-07T00:12:43;6.40;;;3.90;;
4597;SDS011;62772;48.646;8.906;2023-05-07T00:17:43;9.57;;;4.60;;
4597;SDS011;62772;48.646;8.906;2023-05-07T00:22:44;6.60;;;3.70;;
4597;SDS011;62772;48.646;8.906;2023-05-07T00:27:44;6.00;;;4.20;;
4597;SDS011;62772;48.646;8.906;2023-05-07T00:32:45;6.77;;;4.00;;
4597;SDS011;62772;48.646;8.906;2023-05-07T00:37:46;5.60;;;3.40;;
4597;SDS011;62772;48.646;8.906;2023-05-07T00:42:46;7.43;;;4.20;;
4597;SDS011;62772;48.646;8.906;2023-05-07T00:47:49;5.60;;;3.80;;
4597;SDS011;62772;48.646;8.906;2023-05-07T00:52:49;5.10;;;3.73;;
4597;SDS011;62772;48.646;8.906;2023-05-07T00:57:50;6.13;;;3.83;;
4597;SDS011;62772;48.646;8.906;2023-05-07T01:02:51;8.67;;;4.07;;
4597;SDS011;62772;48.646;8.906;2023-05-07T01:07:52;6.27;;;3.90;;
4597;SDS011;62772;48.646;8.906;2023-05-07T01:12:55;6.37;;;4.30;;
4597;SDS011;62772;48.646;8.906;2023-05-07T01:17:55;5.53;;;3.77;;
4597;SDS011;62772;48.646;8.906;2023-05-07T01:23:03;7.30;;;4.50;;
4597;SDS011;62772;48.646;8.906;2023-05-07T01:28:05;7.50;;;3.90;;
4597;SDS011;62772;48.646;8.906;2023-05-07T01:33:11;8.50;;;4.40;;
4597;SDS011;62772;48.646;8.906;2023-05-07T01:38:16;5.73;;;4.40;;
4597;SDS011;62772;48.646;8.906;2023-05-07T01:43:16;6.43;;;4.40;;
4597;SDS011;62772;48.646;8.906;2023-05-07T01:48:17;9.30;;;4.50;;
4597;SDS011;62772;48.646;8.906;2023-05-07T01:53:18;7.33;;;4.10;;
4597;SDS011;62772;48.646;8.906;2023-05-07T01:58:19;6.47;;;4.37;;
4597;SDS011;62772;48.646;8.906;2023-05-07T02:03:20;5.87;;;4.57;;
4597;SDS011;62772;48.646;8.906;2023-05-07T02:08:35;6.03;;;4.10;;
4597;SDS011;62772;48.646;8.906;2023-05-07T02:13:36;7.53;;;3.80;;
4597;SDS011;62772;48.646;8.906;2023-05-07T02:18:37;7.23;;;4.63;;
4597;SDS011;62772;48.646;8.906;2023-05-07T02:23:37;8.20;;;3.97;;
4597;SDS011;62772;48.646;8.906;2023-05-07T02:28:38;7.23;;;4.00;;
4597;SDS011;62772;48.646;8.906;2023-05-07T02:33:39;6.60;;;4.30;;
4597;SDS011;62772;48.646;8.906;2023-05-07T02:38:42;7.20;;;4.57;;
4597;SDS011;62772;48.646;8.906;2023-05-07T02:43:44;6.10;;;4.00;;
4597;SDS011;62772;48.646;8.906;2023-05-07T02:48:45;7.87;;;4.93;;
4597;SDS011;62772;48.646;8.906;2023-05-07T02:53:45;6.50;;;4.23;;
4597;SDS011;62772;48.646;8.906;2023-05-07T02:58:46;8.03;;;4.30;;
4597;SDS011;62772;48.646;8.906;2023-05-07T03:03:48;5.80;;;4.43;;
4597;SDS011;62772;48.646;8.906;2023-05-07T03:08:48;8.80;;;4.37;;
4597;SDS011;62772;48.646;8.906;2023-05-07T03:13:49;6.67;;;4.40;;
4597;SDS011;62772;48.646;8.906;2023-05-07T03:18:51;5.90;;;3.97;;
4597;SDS011;62772;48.646;8.906;2023-05-07T03:23:52;6.00;;;4.50;;
4597;SDS011;62772;48.646;8.906;2023-05-07T03:28:53;6.87;;;4.70;;
4597;SDS011;62772;48.646;8.906;2023-05-07T03:33:54;7.07;;;4.57;;
4597;SDS011;62772;48.646;8.906;2023-05-07T03:38:56;9.63;;;5.10;;
4597;SDS011;62772;48.646;8.906;2023-05-07T03:43:59;6.07;;;4.10;;
4597;SDS011;62772;48.646;8.906;2023-05-07T03:49:00;8.93;;;4.80;;
4597;SDS011;62772;48.646;8.906;2023-05-07T03:54:01;6.73;;;4.70;;
4597;SDS011;62772;48.646;8.906;2023-05-07T03:59:03;8.80;;;4.70;;
4597;SDS011;62772;48.646;8.906;2023-05-07T04:04:04;8.10;;;4.60;;
4597;SDS011;62772;48.646;8.906;2023-05-07T04:09:06;6.30;;;4.37;;
4597;SDS011;62772;48.646;8.906;2023-05-07T04:14:08;7.77;;;5.03;;
4597;SDS011;62772;48.646;8.906;2023-05-07T04:19:09;6.87;;;4.80;;
4597;SDS011;62772;48.646;8.906;2023-05-07T04:24:11;6.90;;;4.97;;
4597;SDS011;62772;48.646;8.906;2023-05-07T04:29:12;6.10;;;4.50;;
4597;SDS011;62772;48.646;8.906;2023-05-07T04:34:12;6.63;;;4.53;;
4597;SDS011;62772;48.646;8.906;2023-05-07T04:39:14;6.37;;;4.10;;
4597;SDS011;62772;48.646;8.906;2023-05-07T04:44:18;8.57;;;4.97;;
4597;SDS011;62772;48.646;8.906;2023-05-07T04:49:19;7.30;;;5.17;;
4597;SDS011;62772;48.646;8.906;2023-05-07T04:54:20;10.20;;;5.80;;
4597;SDS011;62772;48.646;8.906;2023-05-07T04:59:20;11.90;;;5.03;;
4597;SDS011;62772;48.646;8.906;2023-05-07T05:04:21;8.00;;;5.27;;
4597;SDS011;62772;48.646;8.906;2023-05-07T05:09:22;7.83;;;5.63;;
4597;SDS011;62772;48.646;8.906;2023-05-07T05:14:23;6.37;;;5.07;;
4597;SDS011;62772;48.646;8.906;2023-05-07T05:19:25;8.77;;;5.80;;
4597;SDS011;62772;48.646;8.906;2023-05-07T05:24:25;9.03;;;5.80;;
4597;SDS011;62772;48.646;8.906;2023-05-07T05:29:26;8.27;;;6.10;;
4597;SDS011;62772;48.646;8.906;2023-05-07T05:34:26;14.53;;;5.97;;
4597;SDS011;62772;48.646;8.906;2023-05-07T05:39:28;8.30;;;6.17;;
4597;SDS011;62772;48.646;8.906;2023-05-07T05:44:29;7.70;;;5.30;;
4597;SDS011;62772;48.646;8.906;2023-05-07T05:49:29;7.80;;;5.57;;
4597;SDS011;62772;48.646;8.906;2023-05-07T05:54:30;10.70;;;6.63;;
4597;SDS011;62772;48.646;8.906;2023-05-07T05:59:31;12.63;;;6.40;;
4597;SDS011;62772;48.646;8.906;2023-05-07T06:04:31;9.30;;;6.20;;
4597;SDS011;62772;48.646;8.906;2023-05-07T06:09:32;10.40;;;6.00;;
4597;SDS011;62772;48.646;8.906;2023-05-07T06:14:33;14.63;;;6.43;;
4597;SDS011;62772;48.646;8.906;2023-05-07T06:19:34;10.10;;;6.40;;
4597;SDS011;62772;48.646;8.906;2023-05-07T06:24:35;11.50;;;6.73;;
4597;SDS011;62772;48.646;8.906;2023-05-07T06:29:37;11.83;;;6.87;;
4597;SDS011;62772;48.646;8.906;2023-05-07T06:34:45;9.87;;;6.40;;
4597;SDS011;62772;48.646;8.906;2023-05-07T06:39:46;9.53;;;5.90;;
4597;SDS011;62772;48.646;8.906;2023-05-07T06:44:47;9.40;;;6.23;;
4597;SDS011;62772;48.646;8.906;2023-05-07T06:49:50;8.57;;;6.00;;
4597;SDS011;62772;48.646;8.906;2023-05-07T06:54:53;10.33;;;5.80;;
4597;SDS011;62772;48.646;8.906;2023-05-07T06:59:56;8.00;;;6.03;;
4597;SDS011;62772;48.646;8.906;2023-05-07T07:04:56;10.97;;;6.40;;
4597;SDS011;62772;48.646;8.906;2023-05-07T07:09:57;8.40;;;5.37;;
4597;SDS011;62772;48.646;8.906;2023-05-07T07:14:58;7.30;;;5.53;;
4597;SDS011;62772;48.646;8.906;2023-05-07T07:19:58;10.60;;;5.57;;
4597;SDS011;62772;48.646;8.906;2023-05-07T07:24:59;10.57;;;5.47;;
4597;SDS011;62772;48.646;8.906;2023-05-07T07:29:59;9.03;;;6.37;;
4597;SDS011;62772;48.646;8.906;2023-05-07T07:35:01;8.80;;;6.00;;
4597;SDS011;62772;48.646;8.906;2023-05-07T07:40:02;9.23;;;5.70;;
4597;SDS011;62772;48.646;8.906;2023-05-07T07:45:03;8.27;;;5.47;;
4597;SDS011;62772;48.646;8.906;2023-05-07T07:50:08;9.97;;;5.70;;
4597;SDS011;62772;48.646;8.906;2023-05-07T07:55:09;8.33;;;5.00;;
4597;SDS011;62772;48.646;8.906;2023-05-07T08:00:11;8.27;;;5.03;;
4597;SDS011;62772;48.646;8.906;2023-05-07T08:05:18;6.83;;;5.00;;
4597;SDS011;62772;48.646;8.906;2023-05-07T08:10:21;8.20;;;4.70;;
4597;SDS011;62772;48.646;8.906;2023-05-07T08:15:24;9.93;;;5.57;;
4597;SDS011;62772;48.646;8.906;2023-05-07T08:20:25;7.77;;;4.90;;
4597;SDS011;62772;48.646;8.906;2023-05-07T08:25:26;6.20;;;4.60;;
4597;SDS011;62772;48.646;8.906;2023-05-07T08:30:28;8.13;;;4.70;;
4597;SDS011;62772;48.646;8.906;2023-05-07T08:35:29;5.70;;;4.37;;
4597;SDS011;62772;48.646;8.906;2023-05-07T08:40:30;5.93;;;4.03;;
4597;SDS011;62772;48.646;8.906;2023-05-07T08:45:37;8.03;;;4.80;;
4597;SDS011;62772;48.646;8.906;2023-05-07T08:50:42;6.80;;;4.47;;
4597;SDS011;62772;48.646;8.906;2023-05-07T08:55:44;8.20;;;4.13;;
4597;SDS011;62772;48.646;8.906;2023-05-07T09:00:46;7.33;;;4.03;;
4597;SDS011;62772;48.646;8.906;2023-05-07T09:05:47;6.70;;;4.40;;
4597;SDS011;62772;48.646;8.906;2023-05-07T09:10:51;5.40;;;4.23;;
4597;SDS011;62772;48.646;8.906;2023-05-07T09:15:52;5.60;;;4.10;;
4597;SDS011;62772;48.646;8.906;2023-05-07T09:20:54;8.97;;;4.93;;
4597;SDS011;62772;48.646;8.906;2023-05-07T09:25:59;6.73;;;4.30;;
4597;SDS011;62772;48.646;8.906;2023-05-07T09:31:02;7.77;;;4.27;;
4597;SDS011;62772;48.646;8.906;2023-05-07T09:36:04;7.10;;;4.50;;
4597;SDS011;62772;48.646;8.906;2023-05-07T09:41:07;8.40;;;4.20;;
4597;SDS011;62772;48.646;8.906;2023-05-07T09:46:17;5.60;;;3.93;;
4597;SDS011;62772;48.646;8.906;2023-05-07T09:51:29;7.70;;;4.60;;
4597;SDS011;62772;48.646;8.906;2023-05-07T09:56:37;5.07;;;3.60;;
4597;SDS011;62772;48.646;8.906;2023-05-07T10:01:42;6.90;;;4.20;;
4597;SDS011;62772;48.646;8.906;2023-05-07T10:06:45;7.27;;;4.00;;
4597;SDS011;62772;48.646;8.906;2023-05-07T10:11:48;5.70;;;4.10;;
4597;SDS011;62772;48.646;8.906;2023-05-07T10:22:54;4.90;;;3.60;;
4597;SDS011;62772;48.646;8.906;2023-05-07T10:28:04;5.87;;;4.30;;
4597;SDS011;62772;48.646;8.906;2023-05-07T10:33:08;8.10;;;4.77;;
4597;SDS011;62772;48.646;8.906;2023-05-07T10:38:16;6.43;;;3.67;;
4597;SDS011;62772;48.646;8.906;2023-05-07T10:43:19;6.57;;;3.93;;
4597;SDS011;62772;48.646;8.906;2023-05-07T10:48:28;6.27;;;3.70;;
4597;SDS011;62772;48.646;8.906;2023-05-07T10:53:32;13.60;;;4.13;;
4597;SDS011;62772;48.646;8.906;2023-05-07T10:58:41;9.07;;;3.80;;
4597;SDS011;62772;48.646;8.906;2023-05-07T11:09:20;6.27;;;3.80;;
4597;SDS011;62772;48.646;8.906;2023-05-07T11:19:54;4.87;;;3.50;;
4597;SDS011;62772;48.646;8.906;2023-05-07T11:25:21;6.47;;;4.47;;
4597;SDS011;62772;48.646;8.906;2023-05-07T11:30:45;8.63;;;4.00;;
4597;SDS011;62772;48.646;8.906;2023-05-07T11:35:49;6.23;;;3.77;;
4597;SDS011;62772;48.646;8.906;2023-05-07T11:40:52;6.73;;;3.93;;
4597;SDS011;62772;48.646;8.906;2023-05-07T11:46:04;7.50;;;3.83;;
4597;SDS011;62772;48.646;8.906;2023-05-07T11:51:07;5.57;;;3.53;;
4597;SDS011;62772;48.646;8.906;2023-05-07T11:56:13;8.07;;;5.00;;
4597;SDS011;62772;48.646;8.906;2023-05-07T12:01:15;8.17;;;4.83;;
4597;SDS011;62772;48.646;8.906;2023-05-07T12:06:16;7.43;;;3.67;;
4597;SDS011;62772;48.646;8.906;2023-05-07T12:11:23;5.10;;;2.90;;
4597;SDS011;62772;48.646;8.906;2023-05-07T12:16:25;5.47;;;2.57;;
4597;SDS011;62772;48.646;8.906;2023-05-07T12:21:27;4.43;;;2.20;;
4597;SDS011;62772;48.646;8.906;2023-05-07T12:26:28;6.13;;;3.10;;
4597;SDS011;62772;48.646;8.906;2023-05-07T12:31:28;8.23;;;3.63;;
4597;SDS011;62772;48.646;8.906;2023-05-07T12:36:36;6.70;;;2.93;;
4597;SDS011;62772;48.646;8.906;2023-05-07T12:47:01;7.90;;;2.90;;
4597;SDS011;62772;48.646;8.906;2023-05-07T12:52:02;4.63;;;2.90;;
4597;SDS011;62772;48.646;8.906;2023-05-07T13:02:04;5.87;;;2.50;;
4597;SDS011;62772;48.646;8.906;2023-05-07T13:07:05;8.20;;;3.63;;
4597;SDS011;62772;48.646;8.906;2023-05-07T13:12:06;8.07;;;4.03;;
4597;SDS011;62772;48.646;8.906;2023-05-07T13:17:07;7.47;;;4.03;;
4597;SDS011;62772;48.646;8.906;2023-05-07T13:22:07;7.50;;;5.20;;
4597;SDS011;62772;48.646;8.906;2023-05-07T13:27:08;10.50;;;4.83;;
4597;SDS011;62772;48.646;8.906;2023-05-07T13:32:10;8.30;;;5.07;;
4597;SDS011;62772;48.646;8.906;2023-05-07T13:37:10;13.43;;;5.10;;
4597;SDS011;62772;48.646;8.906;2023-05-07T13:42:12;8.90;;;5.20;;
4597;SDS011;62772;48.646;8.906;2023-05-07T13:47:12;9.17;;;5.77;;
4597;SDS011;62772;48.646;8.906;2023-05-07T13:52:13;10.83;;;5.80;;
4597;SDS011;62772;48.646;8.906;2023-05-07T13:57:13;16.10;;;6.50;;
4597;SDS011;62772;48.646;8.906;2023-05-07T14:02:14;11.50;;;6.13;;
4597;SDS011;62772;48.646;8.906;2023-05-07T14:07:15;8.57;;;5.20;;
4597;SDS011;62772;48.646;8.906;2023-05-07T14:12:15;8.73;;;5.40;;
4597;SDS011;62772;48.646;8.906;2023-05-07T14:17:16;6.93;;;4.53;;
4597;SDS011;62772;48.646;8.906;2023-05-07T14:22:18;9.00;;;4.63;;
4597;SDS011;62772;48.646;8.906;2023-05-07T14:27:18;9.10;;;4.50;;
4597;SDS011;62772;48.646;8.906;2023-05-07T14:32:19;8.70;;;4.30;;
4597;SDS011;62772;48.646;8.906;2023-05-07T14:37:20;8.10;;;4.13;;
4597;SDS011;62772;48.646;8.906;2023-05-07T14:42:20;6.20;;;3.93;;
4597;SDS011;62772;48.646;8.906;2023-05-07T14:47:21;7.57;;;4.40;;
4597;SDS011;62772;48.646;8.906;2023-05-07T14:52:22;11.07;;;3.90;;
4597;SDS011;62772;48.646;8.906;2023-05-07T14:57:22;6.50;;;3.60;;
4597;SDS011;62772;48.646;8.906;2023-05-07T15:02:23;7.20;;;3.90;;
4597;SDS011;62772;48.646;8.906;2023-05-07T15:07:23;5.70;;;3.37;;
4597;SDS011;62772;48.646;8.906;2023-05-07T15:12:24;6.03;;;3.70;;
4597;SDS011;62772;48.646;8.906;2023-05-07T15:17:24;6.23;;;4.37;;
4597;SDS011;62772;48.646;8.906;2023-05-07T15:22:24;9.50;;;4.90;;
4597;SDS011;62772;48.646;8.906;2023-05-07T15:27:25;8.03;;;4.13;;
4597;SDS011;62772;48.646;8.906;2023-05-07T15:32:26;7.70;;;4.53;;
4597;SDS011;62772;48.646;8.906;2023-05-07T15:37:26;11.90;;;4.13;;
4597;SDS011;62772;48.646;8.906;2023-05-07T15:42:27;6.50;;;4.23;;
4597;SDS011;62772;48.646;8.906;2023-05-07T15:47:28;8.70;;;4.47;;
4597;SDS011;62772;48.646;8.906;2023-05-07T15:52:33;6.67;;;4.63;;
4597;SDS011;62772;48.646;8.906;2023-05-07T15:57:33;6.90;;;4.53;;
4597;SDS011;62772;48.646;8.906;2023-05-07T16:02:34;9.50;;;5.70;;
4597;SDS011;62772;48.646;8.906;2023-05-07T16:07:36;8.30;;;5.30;;
4597;SDS011;62772;48.646;8.906;2023-05-07T16:12:37;10.40;;;5.10;;
4597;SDS011;62772;48.646;8.906;2023-05-07T16:17:37;8.60;;;4.73;;
4597;SDS011;62772;48.646;8.906;2023-05-07T16:22:38;7.33;;;4.43;;
4597;SDS011;62772;48.646;8.906;2023-05-07T16:27:38;9.37;;;4.30;;
4597;SDS011;62772;48.646;8.906;2023-05-07T16:32:40;6.00;;;3.73;;
4597;SDS011;62772;48.646;8.906;2023-05-07T16:37:40;5.70;;;3.70;;
4597;SDS011;62772;48.646;8.906;2023-05-07T16:42:41;5.80;;;3.50;;
4597;SDS011;62772;48.646;8.906;2023-05-07T16:47:41;5.83;;;3.73;;
4597;SDS011;62772;48.646;8.906;2023-05-07T16:52:42;4.63;;;3.27;;
4597;SDS011;62772;48.646;8.906;2023-05-07T16:57:43;5.33;;;3.27;;
4597;SDS011;62772;48.646;8.906;2023-05-07T17:02:43;6.83;;;3.03;;
4597;SDS011;62772;48.646;8.906;2023-05-07T17:07:44;7.20;;;4.30;;
4597;SDS011;62772;48.646;8.906;2023-05-07T17:12:45;7.10;;;3.70;;
4597;SDS011;62772;48.646;8.906;2023-05-07T17:17:46;7.03;;;3.40;;
4597;SDS011;62772;48.646;8.906;2023-05-07T17:22:47;5.23;;;3.57;;
4597;SDS011;62772;48.646;8.906;2023-05-07T17:27:48;8.00;;;4.93;;
4597;SDS011;62772;48.646;8.906;2023-05-07T17:32:48;5.13;;;3.87;;
4597;SDS011;62772;48.646;8.906;2023-05-07T17:37:49;5.03;;;3.80;;
4597;SDS011;62772;48.646;8.906;2023-05-07T17:42:51;10.80;;;4.60;;
4597;SDS011;62772;48.646;8.906;2023-05-07T17:47:52;8.53;;;4.93;;
4597;SDS011;62772;48.646;8.906;2023-05-07T17:52:52;6.20;;;4.17;;
4597;SDS011;62772;48.646;8.906;2023-05-07T17:57:53;10.20;;;6.10;;
4597;SDS011;62772;48.646;8.906;2023-05-07T18:03:12;7.77;;;5.70;;
4597;SDS011;62772;48.646;8.906;2023-05-07T18:08:33;8.00;;;5.80;;
4597;SDS011;62772;48.646;8.906;2023-05-07T18:13:54;7.80;;;4.57;;
4597;SDS011;62772;48.646;8.906;2023-05-07T18:19:15;6.20;;;4.20;;
4597;SDS011;62772;48.646;8.906;2023-05-07T18:24:35;6.17;;;3.77;;
4597;SDS011;62772;48.646;8.906;2023-05-07T18:29:56;8.13;;;4.10;;
4597;SDS011;62772;48.646;8.906;2023-05-07T18:35:17;7.47;;;4.60;;
4597;SDS011;62772;48.646;8.906;2023-05-07T18:40:38;7.33;;;4.70;;
4597;SDS011;62772;48.646;8.906;2023-05-07T18:46:03;7.67;;;4.30;;
4597;SDS011;62772;48.646;8.906;2023-05-07T18:51:24;6.60;;;5.17;;
4597;SDS011;62772;48.646;8.906;2023-05-07T18:56:46;7.87;;;4.40;;
4597;SDS011;62772;48.646;8.906;2023-05-07T19:02:07;6.80;;;5.00;;
4597;SDS011;62772;48.646;8.906;2023-05-07T19:07:28;7.20;;;5.47;;
4597;SDS011;62772;48.646;8.906;2023-05-07T19:12:48;7.23;;;5.57;;
4597;SDS011;62772;48.646;8.906;2023-05-07T19:17:54;12.70;;;7.03;;
4597;SDS011;62772;48.646;8.906;2023-05-07T19:22:55;7.90;;;5.20;;
4597;SDS011;62772;48.646;8.906;2023-05-07T19:27:55;7.63;;;4.63;;
4597;SDS011;62772;48.646;8.906;2023-05-07T19:32:57;7.60;;;5.30;;
4597;SDS011;62772;48.646;8.906;2023-05-07T19:37:58;8.90;;;5.10;;
4597;SDS011;62772;48.646;8.906;2023-05-07T19:42:59;7.60;;;5.00;;
4597;SDS011;62772;48.646;8.906;2023-05-07T19:47:59;8.50;;;6.17;;
4597;SDS011;62772;48.646;8.906;2023-05-07T19:53:00;8.40;;;5.70;;
4597;SDS011;62772;48.646;8.906;2023-05-07T19:58:00;10.37;;;5.93;;
4597;SDS011;62772;48.646;8.906;2023-05-07T20:03:01;10.13;;;6.03;;
4597;SDS011;62772;48.646;8.906;2023-05-07T20:08:01;9.10;;;6.07;;
4597;SDS011;62772;48.646;8.906;2023-05-07T20:13:03;7.20;;;5.43;;
4597;SDS011;62772;48.646;8.906;2023-05-07T20:18:04;8.93;;;5.97;;
4597;SDS011;62772;48.646;8.906;2023-05-07T20:23:05;10.53;;;6.23;;
4597;SDS011;62772;48.646;8.906;2023-05-07T20:28:07;12.70;;;5.40;;
4597;SDS011;62772;48.646;8.906;2023-05-07T20:33:07;9.67;;;6.30;;
4597;SDS011;62772;48.646;8.906;2023-05-07T20:38:08;7.03;;;5.73;;
4597;SDS011;62772;48.646;8.906;2023-05-07T20:43:08;10.03;;;6.20;;
4597;SDS011;62772;48.646;8.906;2023-05-07T20:48:09;8.50;;;5.97;;
4597;SDS011;62772;48.646;8.906;2023-05-07T20:53:10;9.57;;;6.10;;
4597;SDS011;62772;48.646;8.906;2023-05-07T20:58:13;9.30;;;6.33;;
4597;SDS011;62772;48.646;8.906;2023-05-07T21:03:14;8.47;;;5.70;;
4597;SDS011;62772;48.646;8.906;2023-05-07T21:08:14;8.53;;;6.20;;
4597;SDS011;62772;48.646;8.906;2023-05-07T21:13:15;9.97;;;6.70;;
4597;SDS011;62772;48.646;8.906;2023-05-07T21:18:16;14.60;;;7.90;;
4597;SDS011;62772;48.646;8.906;2023-05-07T21:23:17;10.40;;;7.80;;
4597;SDS011;62772;48.646;8.906;2023-05-07T21:28:17;11.60;;;7.30;;
4597;SDS011;62772;48.646;8.906;2023-05-07T21:33:18;13.20;;;8.50;;
4597;SDS011;62772;48.646;8.906;2023-05-07T21:38:19;10.93;;;8.00;;
4597;SDS011;62772;48.646;8.906;2023-05-07T21:43:19;11.30;;;7.60;;
4597;SDS011;62772;48.646;8.906;2023-05-07T21:48:19;14.80;;;8.00;;
4597;SDS011;62772;48.646;8.906;2023-05-07T21:53:21;12.77;;;8.33;;
4597;SDS011;62772;48.646;8.906;2023-05-07T21:58:21;11.17;;;7.60;;
4597;SDS011;62772;48.646;8.906;2023-05-07T22:03:22;12.17;;;7.40;;
4597;SDS011;62772;48.646;8.906;2023-05-07T22:08:23;14.40;;;8.70;;
4597;SDS011;62772;48.646;8.906;2023-05-07T22:13:23;14.70;;;9.03;;
4597;SDS011;62772;48.646;8.906;2023-05-07T22:18:24;11.67;;;8.70;;
4597;SDS011;62772;48.646;8.906;2023-05-07T22:23:25;11.70;;;8.77;;
4597;SDS011;62772;48.646;8.906;2023-05-07T22:28:25;13.53;;;9.10;;
4597;SDS011;62772;48.646;8.906;2023-05-07T22:33:26;14.93;;;9.80;;
4597;SDS011;62772;48.646;8.906;2023-05-07T22:38:26;14.60;;;9.10;;
4597;SDS011;62772;48.646;8.906;2023-05-07T22:43:27;18.60;;;10.40;;
4597;SDS011;62772;48.646;8.906;2023-05-07T22:48:27;17.73;;;10.90;;
4597;SDS011;62772;48.646;8.906;2023-05-07T22:53:28;17.77;;;11.13;;
4597;SDS011;62772;48.646;8.906;2023-05-07T22:58:29;20.37;;;12.90;;
4597;SDS011;62772;48.646;8.906;2023-05-07T23:03:29;19.97;;;13.60;;
4597;SDS011;62772;48.646;8.906;2023-05-07T23:08:30;26.50;;;15.10;;
4597;SDS011;62772;48.646;8.906;2023-05-07T23:13:30;25.40;;;15.77;;
4597;SDS011;62772;48.646;8.906;2023-05-07T23:18:31;25.07;;;16.17;;
4597;SDS011;62772;48.646;8.906;2023-05-07T23:23:32;25.13;;;15.87;;
4597;SDS011;62772;48.646;8.906;2023-05-07T23:28:34;30.67;;;18.37;;
4597;SDS011;62772;48.646;8.906;2023-05-07T23:33:35;31.90;;;18.90;;
4597;SDS011;62772;48.646;8.906;2023-05-07T23:38:36;27.43;;;18.47;;
4597;SDS011;62772;48.646;8.906;2023-05-07T23:43:36;30.17;;;18.40;;
4597;SDS011;62772;48.646;8.906;2023-05-07T23:48:37;30.03;;;18.40;;
4597;SDS011;62772;48.646;8.906;2023-05-07T23:53:37;27.80;;;17.90;;
4597;SDS011;62772;48.646;8.906;2023-05-07T23:58:38;29.20;;;17.53;;
